createdAt,value
2022-08-01T00:00:10.813Z,18.50
2022-08-01T00:03:04.670Z,18.50
2022-08-01T00:05:51.808Z,18.50
2022-08-01T00:08:45.679Z,18.40
2022-08-01T00:11:32.845Z,18.40
2022-08-01T00:14:32.326Z,18.40
2022-08-01T00:17:19.970Z,18.40
2022-08-01T00:20:15.905Z,18.50
2022-08-01T00:23:04.338Z,18.50
2022-08-01T00:25:57.862Z,18.50
2022-08-01T00:28:44.980Z,18.50
2022-08-01T00:31:38.725Z,18.50
2022-08-01T00:34:25.873Z,18.50
2022-08-01T00:37:19.770Z,18.50
2022-08-01T00:40:07.921Z,18.50
2022-08-01T00:43:01.743Z,18.50
2022-08-01T00:45:55.833Z,18.50
2022-08-01T00:48:43.016Z,18.50
2022-08-01T00:51:36.812Z,18.50
2022-08-01T00:54:25.653Z,18.40
2022-08-01T00:58:02.832Z,18.40
2022-08-01T01:00:27.771Z,18.40
2022-08-01T01:03:23.853Z,18.40
2022-08-01T01:06:29.928Z,18.40
2022-08-01T01:09:47.801Z,18.40
2022-08-01T01:12:58.889Z,18.40
2022-08-01T01:16:12.799Z,18.40
2022-08-01T01:19:09.842Z,18.40
2022-08-01T01:22:08.924Z,18.40
2022-08-01T01:25:09.874Z,18.30
2022-08-01T01:28:09.331Z,18.30
2022-08-01T01:31:05.819Z,18.30
2022-08-01T01:33:54.968Z,18.30
2022-08-01T01:36:50.871Z,18.20
2022-08-01T01:39:39.504Z,18.30
2022-08-01T01:42:40.835Z,18.20
2022-08-01T01:45:29.399Z,18.20
2022-08-01T01:48:25.972Z,18.20
2022-08-01T01:51:14.963Z,18.20
2022-08-01T01:54:09.842Z,18.20
2022-08-01T01:57:00.615Z,18.20
2022-08-01T01:59:57.881Z,18.20
2022-08-01T02:02:46.829Z,18.20
2022-08-01T02:05:42.937Z,18.20
2022-08-01T02:08:32.258Z,18.20
2022-08-01T02:11:30.882Z,18.20
2022-08-01T02:14:20.460Z,18.20
2022-08-01T02:17:16.937Z,18.20
2022-08-01T02:20:04.321Z,18.20
2022-08-01T02:23:03.922Z,18.20
2022-08-01T02:26:09.999Z,18.10
2022-08-01T02:29:09.902Z,18.20
2022-08-01T02:31:58.099Z,18.20
2022-08-01T02:34:54.977Z,18.20
2022-08-01T02:37:45.098Z,18.20
2022-08-01T02:40:43.951Z,18.20
2022-08-01T02:43:34.539Z,18.20
2022-08-01T02:46:35.982Z,18.20
2022-08-01T02:49:34.042Z,18.20
2022-08-01T02:52:29.567Z,18.20
2022-08-01T02:55:32.974Z,18.20
2022-08-01T02:58:21.110Z,18.20
2022-08-01T03:01:27.059Z,18.20
2022-08-01T03:04:25.056Z,18.10
2022-08-01T03:07:13.605Z,18.10
2022-08-01T03:10:08.972Z,18.10
2022-08-01T03:12:58.254Z,18.10
2022-08-01T03:15:53.032Z,18.10
2022-08-01T03:18:42.316Z,18.10
2022-08-01T03:21:37.983Z,18.10
2022-08-01T03:24:35.062Z,18.10
2022-08-01T03:27:32.098Z,18.10
2022-08-01T03:30:19.351Z,18.10
2022-08-01T03:33:14.435Z,18.00
2022-08-01T03:36:03.783Z,18.00
2022-08-01T03:38:59.080Z,17.90
2022-08-01T03:42:02.035Z,17.80
2022-08-01T03:44:58.005Z,17.80
2022-08-01T03:47:54.061Z,17.80
2022-08-01T03:50:46.792Z,17.70
2022-08-01T03:53:42.552Z,17.70
2022-08-01T03:56:33.055Z,17.70
2022-08-01T03:59:28.066Z,17.70
2022-08-01T04:02:15.962Z,17.60
2022-08-01T04:05:11.075Z,17.60
2022-08-01T04:08:06.054Z,17.60
2022-08-01T04:10:53.199Z,17.50
2022-08-01T04:13:47.089Z,17.50
2022-08-01T04:16:42.061Z,17.50
2022-08-01T04:19:29.140Z,17.50
2022-08-01T04:22:23.067Z,17.50
2022-08-01T04:25:32.094Z,17.60
2022-08-01T04:28:27.134Z,17.60
2022-08-01T04:31:24.099Z,17.60
2022-08-01T04:34:13.742Z,17.70
2022-08-01T04:37:09.361Z,17.70
2022-08-01T04:39:58.256Z,17.70
2022-08-01T04:42:52.148Z,17.80
2022-08-01T04:45:40.484Z,17.80
2022-08-01T04:48:34.130Z,17.80
2022-08-01T04:51:23.082Z,17.80
2022-08-01T04:54:17.190Z,17.90
2022-08-01T04:57:06.112Z,17.90
2022-08-01T05:00:04.155Z,17.90
2022-08-01T05:02:58.146Z,17.90
2022-08-01T05:05:52.172Z,17.90
2022-08-01T05:08:39.329Z,18.00
2022-08-01T05:11:33.181Z,18.00
2022-08-01T05:14:28.190Z,18.00
2022-08-01T05:17:22.219Z,18.00
2022-08-01T05:20:10.106Z,18.00
2022-08-01T05:23:05.206Z,18.00
2022-08-01T05:25:57.238Z,18.00
2022-08-01T05:28:52.240Z,18.00
2022-08-01T05:31:46.247Z,18.00
2022-08-01T05:34:33.479Z,18.00
2022-08-01T05:37:27.212Z,18.10
2022-08-01T05:40:14.356Z,18.20
2022-08-01T05:43:08.217Z,18.20
2022-08-01T05:45:55.313Z,18.20
2022-08-01T05:48:49.322Z,18.20
2022-08-01T05:51:36.616Z,18.20
2022-08-01T05:54:30.231Z,18.30
2022-08-01T05:57:17.428Z,18.30
2022-08-01T06:00:11.230Z,18.30
2022-08-01T06:03:05.292Z,18.30
2022-08-01T06:05:53.532Z,18.30
2022-08-01T06:08:47.259Z,18.30
2022-08-01T06:11:34.396Z,18.30
2022-08-01T06:14:28.247Z,18.40
2022-08-01T06:17:15.402Z,18.40
2022-08-01T06:20:11.265Z,18.50
2022-08-01T06:22:59.918Z,18.60
2022-08-01T06:25:59.252Z,18.60
2022-08-01T06:28:46.472Z,18.80
2022-08-01T06:31:40.266Z,18.90
2022-08-01T06:34:34.273Z,19.00
2022-08-01T06:37:22.371Z,19.00
2022-08-01T06:40:18.309Z,19.10
2022-08-01T06:43:12.328Z,19.10
2022-08-01T06:45:59.506Z,19.10
2022-08-01T06:48:53.422Z,19.00
2022-08-01T06:51:40.608Z,19.10
2022-08-01T06:54:34.324Z,19.10
2022-08-01T06:57:21.493Z,19.10
2022-08-01T07:00:18.314Z,19.10
2022-08-01T07:03:05.418Z,19.00
2022-08-01T07:05:59.367Z,19.00
2022-08-01T07:08:53.531Z,19.00
2022-08-01T07:11:47.377Z,19.00
2022-08-01T07:14:41.343Z,19.10
2022-08-01T07:17:35.432Z,19.20
2022-08-01T07:20:22.662Z,19.30
2022-08-01T07:23:16.371Z,19.30
2022-08-01T07:26:15.391Z,19.30
2022-08-01T07:29:03.614Z,19.20
2022-08-01T07:31:57.377Z,19.10
2022-08-01T07:34:44.513Z,18.90
2022-08-01T07:37:45.218Z,18.90
2022-08-01T07:40:43.442Z,19.00
2022-08-01T07:43:37.490Z,19.20
2022-08-01T07:46:31.422Z,19.10
2022-08-01T07:49:18.659Z,19.10
2022-08-01T07:52:12.383Z,19.20
2022-08-01T07:55:06.450Z,19.30
2022-08-01T07:57:53.579Z,19.50
2022-08-01T08:00:47.457Z,19.60
2022-08-01T08:03:34.597Z,19.80
2022-08-01T08:06:29.420Z,20.00
2022-08-01T08:09:16.938Z,20.00
2022-08-01T08:12:13.469Z,19.90
2022-08-01T08:15:01.913Z,20.00
2022-08-01T08:17:55.432Z,20.20
2022-08-01T08:20:50.171Z,20.40
2022-08-01T08:23:56.001Z,20.60
2022-08-01T08:26:49.466Z,20.90
2022-08-01T08:29:46.448Z,21.10
2022-08-01T08:32:40.497Z,21.10
2022-08-01T08:35:53.386Z,21.30
2022-08-01T08:38:47.557Z,21.30
2022-08-01T08:41:37.809Z,21.40
2022-08-01T08:44:32.492Z,21.50
2022-08-01T08:47:20.916Z,21.50
2022-08-01T08:50:15.494Z,21.50
2022-08-01T08:53:06.487Z,21.30
2022-08-01T08:56:02.486Z,21.00
2022-08-01T08:58:56.523Z,21.00
2022-08-01T09:01:50.494Z,20.90
2022-08-01T09:04:40.001Z,21.00
2022-08-01T09:07:33.505Z,21.10
2022-08-01T09:10:27.500Z,21.20
2022-08-01T09:13:16.004Z,21.40
2022-08-01T09:16:09.552Z,21.60
2022-08-01T09:19:08.734Z,21.80
2022-08-01T09:22:12.537Z,22.10
2022-08-01T09:25:01.126Z,22.40
2022-08-01T09:27:55.610Z,22.50
2022-08-01T09:30:42.839Z,22.60
2022-08-01T09:33:55.586Z,22.30
2022-08-01T09:36:59.564Z,22.30
2022-08-01T09:40:04.559Z,22.50
2022-08-01T09:42:59.557Z,22.70
2022-08-01T09:45:50.732Z,22.80
2022-08-01T09:49:01.613Z,22.80
2022-08-01T09:51:59.996Z,23.00
2022-08-01T09:55:28.624Z,23.00
2022-08-01T09:58:22.629Z,23.00
2022-08-01T10:01:09.755Z,22.80
2022-08-01T10:04:15.611Z,23.00
2022-08-01T10:07:14.649Z,23.30
2022-08-01T10:10:28.920Z,23.50
2022-08-01T10:13:22.630Z,23.40
2022-08-01T10:16:17.669Z,23.40
2022-08-01T10:19:15.507Z,23.40
2022-08-01T10:22:11.636Z,23.50
2022-08-01T10:25:12.799Z,23.60
2022-08-01T10:28:02.543Z,23.50
2022-08-01T10:30:56.668Z,23.40
2022-08-01T10:33:53.467Z,23.60
2022-08-01T10:36:47.678Z,23.50
2022-08-01T10:39:42.660Z,23.50
2022-08-01T10:42:30.327Z,23.20
2022-08-01T10:45:24.694Z,23.00
2022-08-01T10:48:22.668Z,23.10
2022-08-01T10:51:18.182Z,23.30
2022-08-01T10:54:15.682Z,23.60
2022-08-01T10:57:09.896Z,23.90
2022-08-01T11:00:08.684Z,24.00
2022-08-01T11:03:04.727Z,24.00
2022-08-01T11:06:00.707Z,24.10
2022-08-01T11:09:01.795Z,24.10
2022-08-01T11:12:24.514Z,23.90
2022-08-01T11:15:29.797Z,23.70
2022-08-01T11:18:31.474Z,23.30
2022-08-01T11:21:58.093Z,23.30
2022-08-01T11:24:55.725Z,23.40
2022-08-01T11:27:50.732Z,23.80
2022-08-01T11:30:44.771Z,23.80
2022-08-01T11:33:46.154Z,23.70
2022-08-01T11:36:58.789Z,23.70
2022-08-01T11:40:20.554Z,23.70
2022-08-01T11:43:26.790Z,23.80
2022-08-01T11:46:25.769Z,23.90
2022-08-01T11:49:39.299Z,24.00
2022-08-01T11:52:39.759Z,24.10
2022-08-01T11:55:38.779Z,23.90
2022-08-01T11:58:33.791Z,23.90
2022-08-01T12:01:29.782Z,24.10
2022-08-01T12:04:23.854Z,24.30
2022-08-01T12:07:18.938Z,24.30
2022-08-01T12:10:17.822Z,24.50
2022-08-01T12:13:13.961Z,24.60
2022-08-01T12:16:08.871Z,24.70
2022-08-01T12:19:02.848Z,24.80
2022-08-01T12:22:16.117Z,25.00
2022-08-01T12:25:21.868Z,25.50
2022-08-01T12:28:10.527Z,25.60
2022-08-01T12:31:03.835Z,25.70
2022-08-01T12:33:57.896Z,25.90
2022-08-01T12:36:45.483Z,25.90
2022-08-01T12:39:42.863Z,25.60
2022-08-01T12:42:30.614Z,25.50
2022-08-01T12:45:28.838Z,25.40
2022-08-01T12:48:18.015Z,25.40
2022-08-01T12:51:11.949Z,25.50
2022-08-01T12:54:07.929Z,25.50
2022-08-01T12:57:01.487Z,25.50
2022-08-01T12:59:54.872Z,25.40
2022-08-01T13:02:43.243Z,25.20
2022-08-01T13:05:57.911Z,25.10
2022-08-01T13:08:52.902Z,24.90
2022-08-01T13:12:04.259Z,24.90
2022-08-01T13:14:58.892Z,25.00
2022-08-01T13:17:52.957Z,25.00
2022-08-01T13:20:52.273Z,25.20
2022-08-01T13:24:02.885Z,25.40
2022-08-01T13:27:02.928Z,25.40
2022-08-01T13:29:59.940Z,25.30
2022-08-01T13:33:07.030Z,25.50
2022-08-01T13:36:06.925Z,25.90
2022-08-01T13:39:12.597Z,26.20
2022-08-01T13:42:06.197Z,26.30
2022-08-01T13:44:59.982Z,26.50
2022-08-01T13:48:12.341Z,26.40
2022-08-01T13:51:21.153Z,26.10
2022-08-01T13:54:09.453Z,25.70
2022-08-01T13:57:02.979Z,25.60
2022-08-01T13:59:57.018Z,25.50
2022-08-01T14:02:44.128Z,25.30
2022-08-01T14:05:38.058Z,25.10
2022-08-01T14:08:31.986Z,24.90
2022-08-01T14:11:26.054Z,24.80
2022-08-01T14:14:17.827Z,24.70
2022-08-01T14:17:12.003Z,24.80
2022-08-01T14:20:00.346Z,24.80
2022-08-01T14:22:54.006Z,24.90
2022-08-01T14:26:03.617Z,25.10
2022-08-01T14:28:56.009Z,25.40
2022-08-01T14:31:43.164Z,25.70
2022-08-01T14:34:37.061Z,26.00
2022-08-01T14:37:28.700Z,26.10
2022-08-01T14:40:23.055Z,26.00
2022-08-01T14:43:24.951Z,25.80
2022-08-01T14:46:21.052Z,25.90
2022-08-01T14:49:15.115Z,26.00
2022-08-01T14:52:02.326Z,26.20
2022-08-01T14:54:56.056Z,26.40
2022-08-01T14:57:43.183Z,26.30
2022-08-01T15:00:37.136Z,26.10
2022-08-01T15:03:31.063Z,25.90
2022-08-01T15:06:25.061Z,25.60
2022-08-01T15:09:19.151Z,25.40
2022-08-01T15:12:07.644Z,25.20
2022-08-01T15:15:01.129Z,25.10
2022-08-01T15:17:48.435Z,25.20
2022-08-01T15:20:42.106Z,25.20
2022-08-01T15:23:36.108Z,25.30
2022-08-01T15:26:30.107Z,25.30
2022-08-01T15:29:17.226Z,25.40
2022-08-01T15:32:12.116Z,25.50
2022-08-01T15:34:59.213Z,25.70
2022-08-01T15:37:53.157Z,25.90
2022-08-01T15:40:40.286Z,26.00
2022-08-01T15:43:34.138Z,26.20
2022-08-01T15:46:31.353Z,26.20
2022-08-01T15:49:26.181Z,26.30
2022-08-01T15:52:21.537Z,26.50
2022-08-01T15:55:16.224Z,26.50
2022-08-01T15:58:03.961Z,26.60
2022-08-01T16:00:57.144Z,26.30
2022-08-01T16:03:51.399Z,26.30
2022-08-01T16:06:38.504Z,26.10
2022-08-01T16:09:32.253Z,26.00
2022-08-01T16:12:19.465Z,25.80
2022-08-01T16:15:13.192Z,25.70
2022-08-01T16:18:02.023Z,25.70
2022-08-01T16:20:56.219Z,25.60
2022-08-01T16:23:51.209Z,25.60
2022-08-01T16:26:45.204Z,25.80
2022-08-01T16:29:39.275Z,25.90
2022-08-01T16:32:32.369Z,26.00
2022-08-01T16:35:36.211Z,25.90
2022-08-01T16:38:23.914Z,25.70
2022-08-01T16:41:19.602Z,25.40
2022-08-01T16:44:14.218Z,25.20
2022-08-01T16:47:03.729Z,25.00
2022-08-01T16:49:58.239Z,24.70
2022-08-01T16:52:45.375Z,24.30
2022-08-01T16:55:50.320Z,24.00
2022-08-01T16:58:38.051Z,23.80
2022-08-01T17:01:58.738Z,23.40
2022-08-01T17:04:46.255Z,23.20
2022-08-01T17:07:40.338Z,23.00
2022-08-01T17:10:34.260Z,23.00
2022-08-01T17:13:23.502Z,22.90
2022-08-01T17:16:17.304Z,22.70
2022-08-01T17:19:04.970Z,22.80
2022-08-01T17:21:58.319Z,22.70
2022-08-01T17:24:45.578Z,22.70
2022-08-01T17:27:39.309Z,22.70
2022-08-01T17:30:33.305Z,22.70
2022-08-01T17:33:21.104Z,22.70
2022-08-01T17:36:15.339Z,22.60
2022-08-01T17:39:10.313Z,22.60
2022-08-01T17:41:57.550Z,22.60
2022-08-01T17:44:52.095Z,22.60
2022-08-01T17:47:50.664Z,22.50
2022-08-01T17:50:38.211Z,22.50
2022-08-01T17:53:32.476Z,22.50
2022-08-01T17:56:26.344Z,22.50
2022-08-01T17:59:13.492Z,22.40
2022-08-01T18:02:07.344Z,22.20
2022-08-01T18:04:56.496Z,22.20
2022-08-01T18:08:00.354Z,22.10
2022-08-01T18:10:49.132Z,22.10
2022-08-01T18:13:43.384Z,22.00
2022-08-01T18:16:37.411Z,22.00
2022-08-01T18:19:31.383Z,21.90
2022-08-01T18:22:33.384Z,21.90
2022-08-01T18:25:27.500Z,21.80
2022-08-01T18:28:23.471Z,21.80
2022-08-01T18:31:27.474Z,21.70
2022-08-01T18:34:14.605Z,21.60
2022-08-01T18:37:08.715Z,21.60
2022-08-01T18:39:56.481Z,21.60
2022-08-01T18:42:50.477Z,21.50
2022-08-01T18:45:42.590Z,21.40
2022-08-01T18:48:37.459Z,21.30
2022-08-01T18:51:31.415Z,21.20
2022-08-01T18:54:25.458Z,21.20
2022-08-01T18:57:21.057Z,21.20
2022-08-01T19:00:16.444Z,21.10
2022-08-01T19:03:04.302Z,21.00
2022-08-01T19:05:58.488Z,21.00
2022-08-01T19:08:46.116Z,20.90
2022-08-01T19:11:40.453Z,20.80
2022-08-01T19:14:34.462Z,20.80
2022-08-01T19:17:28.508Z,20.70
2022-08-01T19:20:15.625Z,20.60
2022-08-01T19:23:29.492Z,20.50
2022-08-01T19:26:26.459Z,20.40
2022-08-01T19:29:35.124Z,20.30
2022-08-01T19:32:35.514Z,20.30
2022-08-01T19:35:22.959Z,20.20
2022-08-01T19:38:17.492Z,20.10
2022-08-01T19:41:11.990Z,20.10
2022-08-01T19:44:10.550Z,20.00
2022-08-01T19:47:04.762Z,19.90
2022-08-01T19:49:52.093Z,19.80
2022-08-01T19:52:46.534Z,19.80
2022-08-01T19:55:44.582Z,19.70
2022-08-01T19:58:37.660Z,19.70
2022-08-01T20:01:31.523Z,19.60
2022-08-01T20:04:26.694Z,19.60
2022-08-01T20:07:15.291Z,19.50
2022-08-01T20:10:10.573Z,19.40
2022-08-01T20:13:04.752Z,19.30
2022-08-01T20:15:52.779Z,19.30
2022-08-01T20:18:47.601Z,19.20
2022-08-01T20:21:42.598Z,19.20
2022-08-01T20:25:03.560Z,19.10
2022-08-01T20:27:57.545Z,19.10
2022-08-01T20:30:51.575Z,19.00
2022-08-01T20:33:43.919Z,19.00
2022-08-01T20:36:37.586Z,18.90
2022-08-01T20:39:32.638Z,18.90
2022-08-01T20:42:21.349Z,18.90
2022-08-01T20:45:18.645Z,18.80
2022-08-01T20:48:14.621Z,18.80
2022-08-01T20:51:21.670Z,18.80
2022-08-01T20:54:08.918Z,18.70
2022-08-01T20:57:11.902Z,18.70
2022-08-01T21:00:11.649Z,18.70
2022-08-01T21:03:08.217Z,18.60
2022-08-01T21:06:19.620Z,18.50
2022-08-01T21:09:13.636Z,18.50
2022-08-01T21:12:03.813Z,18.40
2022-08-01T21:15:07.702Z,18.40
2022-08-01T21:18:30.661Z,18.40
2022-08-01T21:21:28.705Z,18.30
2022-08-01T21:24:16.639Z,18.30
2022-08-01T21:27:10.957Z,18.20
2022-08-01T21:30:00.559Z,18.20
2022-08-01T21:33:01.706Z,18.20
2022-08-01T21:35:51.924Z,18.20
2022-08-01T21:38:46.670Z,18.10
2022-08-01T21:42:05.198Z,18.10
2022-08-01T21:44:54.531Z,18.10
2022-08-01T21:47:49.689Z,18.00
2022-08-01T21:50:53.073Z,18.00
2022-08-01T21:54:26.700Z,18.00
2022-08-01T21:57:58.704Z,18.00
2022-08-01T22:00:53.634Z,18.00
2022-08-01T22:03:50.729Z,17.90
2022-08-01T22:06:45.050Z,17.90
2022-08-01T22:09:38.732Z,17.90
2022-08-01T22:12:26.295Z,17.90
2022-08-01T22:15:20.715Z,17.90
2022-08-01T22:18:09.251Z,17.90
2022-08-01T22:21:02.789Z,17.90
2022-08-01T22:24:00.809Z,17.90
2022-08-01T22:26:53.210Z,17.90
2022-08-01T22:29:46.834Z,17.90
2022-08-01T22:32:39.798Z,17.90
2022-08-01T22:35:35.836Z,17.90
2022-08-01T22:38:27.507Z,17.90
2022-08-01T22:41:23.846Z,17.90
2022-08-01T22:44:14.911Z,17.90
2022-08-01T22:47:26.862Z,17.90
2022-08-01T22:50:36.770Z,17.90
2022-08-01T22:53:42.884Z,17.80
2022-08-01T22:56:42.858Z,17.80
2022-08-01T22:59:48.517Z,17.80
2022-08-01T23:02:53.879Z,17.80
2022-08-01T23:05:54.136Z,17.80
2022-08-01T23:08:47.824Z,17.80
2022-08-01T23:11:41.887Z,17.80
2022-08-01T23:14:30.367Z,17.80
2022-08-01T23:17:29.138Z,17.70
2022-08-01T23:20:24.951Z,17.70
2022-08-01T23:23:18.826Z,17.70
2022-08-01T23:26:19.289Z,17.70
2022-08-01T23:29:13.832Z,17.60
2022-08-01T23:32:03.426Z,17.60
2022-08-01T23:34:57.850Z,17.60
2022-08-01T23:37:45.054Z,17.60
2022-08-01T23:40:40.876Z,17.50
2022-08-01T23:43:34.888Z,17.50
2022-08-01T23:46:23.539Z,17.50
2022-08-01T23:49:16.969Z,17.50
2022-08-01T23:52:04.833Z,17.40
2022-08-01T23:54:58.925Z,17.40
2022-08-01T23:57:47.058Z,17.40
